Time;durP1;ratioP1;P1;durP2;ratioP2;P2;SDS_P1;SDS_P2;PMS_P1;PMS_P2;Temp;Humidity;BMP_temperature;BMP_pressure;BME280_temperature;BME280_humidity;BME280_pressure;Samples;Min_cycle;Max_cycle;Signal;HPM_P1;HPM_P2
2022/01/25 00:08:38;;;;;;;23.48;12.63;;;;;;;-6.71;74.61;100430.09;4983969;28;20042;-78
2022/01/25 00:25:07;;;;;;;31.13;13.95;;;;;;;-6.53;74.02;100415.47;5011273;28;20042;-78
2022/01/25 00:30:31;;;;;;;28.98;15.55;;;;;;;-6.64;74.04;100389.44;4985468;28;20050;-81
2022/01/25 00:32:57;;;;;;;32.13;14.85;;;;;;;-6.71;73.96;100393.13;5011446;28;20065;-77
2022/01/25 00:35:23;;;;;;;30.58;14.60;;;;;;;-6.66;74.78;100388.41;5012442;28;20104;-78
2022/01/25 00:37:49;;;;;;;37.65;17.35;;;;;;;-6.63;74.78;100383.63;4978726;28;20069;-77
2022/01/25 00:40:14;;;;;;;26.88;13.95;;;;;;;-6.54;74.17;100373.34;5012006;28;20452;-77
2022/01/25 00:42:40;;;;;;;38.30;16.40;;;;;;;-6.67;74.23;100372.41;4994979;28;20076;-77
2022/01/25 00:45:08;;;;;;;33.03;14.90;;;;;;;-6.67;73.42;100374.06;5011905;28;20097;-77
2022/01/25 00:47:34;;;;;;;28.38;14.55;;;;;;;-6.74;73.68;100362.59;5011100;28;20124;-78
2022/01/25 00:50:00;;;;;;;30.75;14.55;;;;;;;-6.66;74.59;100359.00;4994924;28;20034;-78
2022/01/25 00:55:04;;;;;;;29.95;13.85;;;;;;;-6.64;73.76;100349.06;5014779;28;20125;-78
2022/01/25 00:57:29;;;;;;;;;;;;;;;-6.61;73.79;100340.81;4998964;28;20127;-77
2022/01/25 00:59:56;;;;;;;30.65;14.57;;;;;;;-6.68;73.62;100340.38;5047671;28;19917;-77
2022/01/25 01:02:21;;;;;;;26.23;13.65;;;;;;;-6.81;73.36;100334.31;4998279;28;20101;-78
2022/01/25 01:04:47;;;;;;;27.95;14.68;;;;;;;-6.85;74.27;100325.63;5014290;28;20050;-78
2022/01/25 01:07:15;;;;;;;33.80;16.10;;;;;;;-6.79;74.46;100325.19;5014361;28;20053;-78
2022/01/25 01:09:44;;;;;;;33.13;15.98;;;;;;;-6.91;74.74;100330.22;4978748;28;20057;-78
2022/01/25 01:12:16;;;;;;;33.72;16.60;;;;;;;-6.94;75.68;100324.91;5043432;28;20065;-78
2022/01/25 01:43:36;;;;;;;30.90;16.52;;;;;;;-7.00;74.74;100286.66;5013912;28;20040;-77
2022/01/25 01:46:27;;;;;;;33.38;16.48;;;;;;;-6.97;74.79;100284.31;5013246;28;20068;-77
2022/01/25 01:49:01;;;;;;;32.85;16.50;;;;;;;-6.98;75.86;100272.50;5013264;28;20053;-76
2022/01/25 01:51:32;;;;;;;33.25;16.85;;;;;;;-6.99;74.61;100260.66;5013436;28;20034;-79
2022/01/25 01:54:16;;;;;;;37.25;17.75;;;;;;;-6.99;74.89;100265.69;4997723;28;20045;-77
2022/01/25 01:56:43;;;;;;;36.80;17.70;;;;;;;-7.07;74.81;100265.13;4997312;28;20128;-77
2022/01/25 01:59:13;;;;;;;33.10;15.77;;;;;;;-7.05;75.37;100255.16;4997353;28;20068;-79
2022/01/25 02:01:39;;;;;;;32.65;17.15;;;;;;;-7.11;75.38;100249.63;4981179;28;20052;-77
2022/01/25 02:04:06;;;;;;;30.48;16.65;;;;;;;-7.13;75.49;100244.50;4997162;28;20062;-77
2022/01/25 02:06:32;;;;;;;27.65;14.43;;;;;;;-7.16;75.84;100246.78;5046277;28;20044;-77
2022/01/25 02:08:58;;;;;;;30.33;15.90;;;;;;;-7.22;76.04;100241.28;4996981;28;20033;-77
2022/01/25 02:11:24;;;;;;;28.50;15.85;;;;;;;-7.31;75.67;100226.34;4997076;28;20037;-77
2022/01/25 02:13:49;;;;;;;30.67;15.55;;;;;;;-7.27;76.00;100229.97;4996480;28;20042;-77
2022/01/25 02:24:30;;;;;;;27.70;14.57;;;;;;;-7.48;76.97;100212.47;4998888;28;20068;-76
2022/01/25 02:26:57;;;;;;;29.25;15.27;;;;;;;-7.49;76.17;100219.91;4996642;28;20558;-77
2022/01/25 02:29:23;;;;;;;29.65;15.68;;;;;;;-7.61;76.16;100213.94;4996657;28;20038;-77
2022/01/25 02:31:49;;;;;;;26.20;13.85;;;;;;;-7.53;77.88;100211.25;5013941;28;20040;-77
2022/01/25 02:34:15;;;;;;;29.35;14.48;;;;;;;-7.48;76.91;100207.41;5012875;28;20037;-77
2022/01/25 02:36:41;;;;;;;31.98;16.65;;;;;;;-7.52;76.28;100214.63;5012812;28;20416;-77
2022/01/25 02:39:06;;;;;;;34.13;17.02;;;;;;;-7.61;77.27;100212.28;5012858;28;20034;-77
2022/01/25 02:41:33;;;;;;;30.35;16.00;;;;;;;-7.69;76.79;100204.16;4996709;28;20037;-77
2022/01/25 02:43:59;;;;;;;30.33;15.98;;;;;;;-7.73;77.47;100208.84;5013806;28;20042;-77
2022/01/25 02:48:59;;;;;;;31.98;16.27;;;;;;;-7.79;76.89;100193.25;5013379;28;20068;-76
2022/01/25 02:51:27;;;;;;;30.17;16.05;;;;;;;-7.85;77.77;100181.09;5013644;28;20065;-77
2022/01/25 02:53:54;;;;;;;29.05;15.63;;;;;;;-7.87;77.93;100176.72;5012240;28;20030;-78
2022/01/25 02:56:20;;;;;;;34.05;17.15;;;;;;;-7.91;77.79;100173.06;5012181;28;20179;-78
2022/01/25 02:58:45;;;;;;;27.83;15.15;;;;;;;-7.88;77.41;100185.88;5012435;28;20042;-78
2022/01/25 03:01:11;;;;;;;33.60;16.08;;;;;;;-7.86;77.47;100184.38;5011904;28;20497;-78
2022/01/25 03:03:37;;;;;;;32.92;16.70;;;;;;;-7.75;77.85;100191.09;5012156;28;20061;-78
2022/01/25 03:06:03;;;;;;;29.35;14.60;;;;;;;-7.72;77.41;100183.78;5013178;28;20073;-77
2022/01/25 03:08:29;;;;;;;32.33;15.45;;;;;;;-7.78;78.22;100180.81;4996087;28;20046;-78
2022/01/25 03:10:55;;;;;;;31.50;16.10;;;;;;;-7.85;78.61;100173.53;4995982;28;20073;-79
2022/01/25 03:13:26;;;;;;;32.85;16.30;;;;;;;-7.77;79.15;100179.16;5012874;28;20062;-79
2022/01/25 03:21:03;;;;;;;39.83;17.55;;;;;;;-7.73;77.69;100173.59;5013148;28;20042;-77
2022/01/25 03:23:30;;;;;;;37.95;17.45;;;;;;;-7.71;78.29;100177.09;4996345;28;20493;-78
2022/01/25 03:25:56;;;;;;;34.17;17.30;;;;;;;-7.68;77.78;100173.19;5012058;28;20125;-78
2022/01/25 03:28:22;;;;;;;38.75;17.80;;;;;;;-7.62;78.18;100177.78;4995684;28;20537;-79
2022/01/25 03:30:48;;;;;;;35.33;17.52;;;;;;;-7.64;78.14;100173.41;4992104;28;20066;-79
2022/01/25 03:33:14;;;;;;;;;;;;;;;-7.62;77.85;100169.34;5012727;28;20042;-80
2022/01/25 03:35:40;;;;;;;33.67;17.08;;;;;;;-7.60;77.36;100170.38;5012404;28;20020;-78
2022/01/25 03:38:06;;;;;;;38.50;18.13;;;;;;;-7.64;77.38;100168.38;5011644;28;20063;-79
2022/01/25 03:40:31;;;;;;;;;;;;;;;-7.65;77.39;100174.16;4996261;28;20046;-78
2022/01/25 03:42:59;;;;;;;37.55;16.90;;;;;;;-7.70;77.79;100164.63;5009941;28;19924;-79
2022/01/25 03:45:30;;;;;;;34.38;16.77;;;;;;;-7.65;77.20;100156.53;5009407;28;20030;-79
2022/01/25 03:50:45;;;;;;;37.53;15.90;;;;;;;-7.54;76.89;100170.81;5005758;28;20842;-80
2022/01/25 03:53:12;;;;;;;31.83;14.98;;;;;;;-7.60;76.25;100161.16;5035658;28;20129;-77
2022/01/25 03:55:38;;;;;;;29.48;14.75;;;;;;;-7.52;76.04;100166.75;5011688;28;20038;-78
2022/01/25 03:58:03;;;;;;;31.67;16.02;;;;;;;-7.52;76.86;100151.63;4994287;28;20076;-77
2022/01/25 04:00:30;;;;;;;30.60;15.38;;;;;;;-7.53;77.52;100158.31;4995045;28;20500;-78
2022/01/25 04:03:02;;;;;;;31.73;15.95;;;;;;;-7.61;76.74;100148.44;5011889;28;20515;-78
2022/01/25 04:05:48;;;;;;;27.77;14.75;;;;;;;-7.64;77.51;100143.19;4995834;28;20054;-78
2022/01/25 04:08:14;;;;;;;28.58;15.00;;;;;;;-7.65;77.15;100154.00;5011489;28;20527;-78
2022/01/25 04:10:40;;;;;;;;;;;;;;;-7.68;77.88;100153.03;4979169;28;20158;-78
2022/01/25 04:13:07;;;;;;;29.80;14.77;;;;;;;-7.68;77.97;100147.97;5010988;28;19952;-78
2022/01/25 04:15:33;;;;;;;31.60;14.70;;;;;;;-7.65;78.08;100151.47;5011227;28;20380;-78
2022/01/25 04:18:19;;;;;;;32.40;14.90;;;;;;;-7.61;78.17;100148.44;4978701;28;20096;-79
2022/01/25 04:20:56;;;;;;;30.67;14.25;;;;;;;-7.59;77.36;100139.38;5012362;28;20042;-80
2022/01/25 04:26:06;;;;;;;33.88;15.52;;;;;;;-7.61;77.43;100139.22;4998310;28;20181;-79
2022/01/25 04:28:32;;;;;;;35.08;15.85;;;;;;;-7.61;77.88;100133.31;5015078;28;20076;-80
2022/01/25 04:30:57;;;;;;;;;;;;;;;-7.62;76.54;100129.94;5016265;28;20045;-79
2022/01/25 04:33:27;;;;;;;35.83;17.02;;;;;;;-7.56;76.50;100127.88;5015972;28;19917;-78
2022/01/25 04:36:08;;;;;;;32.85;17.65;;;;;;;-7.64;77.20;100113.84;4999129;28;20520;-78
2022/01/25 04:49:35;;;;;;;39.72;19.48;;;;;;;-7.67;77.69;100104.38;5015816;28;20124;-76
2022/01/25 04:52:14;;;;;;;35.85;18.88;;;;;;;-7.64;77.21;100095.31;4998975;28;20033;-78
2022/01/25 04:57:50;;;;;;;38.22;19.88;;;;;;;-7.71;77.54;100099.88;4992812;28;20050;-78
2022/01/25 05:00:22;;;;;;;37.25;19.02;;;;;;;-7.69;76.78;100095.84;5014969;28;20496;-78
2022/01/25 05:02:57;;;;;;;40.83;19.10;;;;;;;-7.78;76.92;100085.09;5014583;28;20054;-78
2022/01/25 05:05:36;;;;;;;40.13;18.33;;;;;;;-7.79;76.96;100088.38;4999372;28;20080;-79
2022/01/25 05:08:29;;;;;;;36.33;18.25;;;;;;;-7.84;77.81;100089.66;5000580;28;20111;-80
2022/01/25 05:11:09;;;;;;;40.38;18.25;;;;;;;-7.77;77.82;100107.00;4989611;28;20045;-78
2022/01/25 05:16:07;;;;;;;34.10;17.92;;;;;;;-7.74;77.25;100082.06;5014912;28;20038;-79
2022/01/25 05:18:43;;;;;;;32.83;17.15;;;;;;;-7.79;77.17;100095.94;4998217;28;20048;-79
2022/01/25 05:23:53;;;;;;;27.98;16.30;;;;;;;-7.80;77.60;100081.56;5014838;28;20052;-80
2022/01/25 05:26:20;;;;;;;27.27;15.45;;;;;;;-7.78;77.96;100080.06;5015239;28;20033;-78
2022/01/25 05:28:45;;;;;;;29.42;15.57;;;;;;;-7.78;77.96;100091.78;4998866;28;20477;-78
2022/01/25 05:31:11;;;;;;;30.10;15.60;;;;;;;-7.80;77.15;100071.50;5047615;28;20046;-78
2022/01/25 05:33:37;;;;;;;29.95;16.33;;;;;;;-7.79;77.34;100069.84;5015704;28;20046;-79
2022/01/25 05:36:03;;;;;;;28.90;15.38;;;;;;;-7.73;76.86;100068.69;5014907;28;20572;-80
2022/01/25 05:38:30;;;;;;;30.17;15.70;;;;;;;-7.78;77.25;100054.88;5014225;28;20053;-79
2022/01/25 05:40:59;;;;;;;31.15;15.93;;;;;;;-7.78;77.01;100054.00;5014472;28;20054;-78
2022/01/25 05:46:11;;;;;;;32.83;16.27;;;;;;;-7.76;78.02;100057.50;5015433;28;20129;-80
2022/01/25 05:48:37;;;;;;;33.88;16.65;;;;;;;-7.76;78.06;100052.47;5015808;28;20037;-79
2022/01/25 05:51:02;;;;;;;33.85;17.60;;;;;;;-7.75;76.48;100046.66;5013865;28;20377;-80
2022/01/25 05:53:28;;;;;;;33.20;16.88;;;;;;;-7.77;76.68;100049.06;5047184;28;20053;-78
2022/01/25 05:55:54;;;;;;;33.17;16.98;;;;;;;-7.78;76.63;100049.84;5030616;28;20038;-78
2022/01/25 05:58:20;;;;;;;31.58;16.25;;;;;;;-7.77;77.01;100048.19;4981569;28;20041;-80
2022/01/25 06:00:46;;;;;;;31.35;15.63;;;;;;;-7.77;76.63;100039.00;5014124;28;20112;-80
2022/01/25 06:03:12;;;;;;;32.28;16.00;;;;;;;-7.73;76.86;100030.91;5013906;28;20497;-79
2022/01/25 06:05:37;;;;;;;33.38;16.98;;;;;;;-7.74;77.11;100036.72;5015264;28;20129;-79
2022/01/25 06:08:03;;;;;;;31.58;16.63;;;;;;;-7.77;77.33;100021.38;5014150;28;20033;-79
2022/01/25 06:10:29;;;;;;;38.05;16.85;;;;;;;-7.80;77.06;100016.09;5014301;28;20037;-80
2022/01/25 06:12:55;;;;;;;32.45;16.63;;;;;;;-7.75;77.85;100014.78;4997907;28;20033;-80
2022/01/25 06:15:22;;;;;;;30.65;16.58;;;;;;;-7.78;77.14;100007.03;4981558;28;20040;-79
2022/01/25 06:17:49;;;;;;;33.15;16.00;;;;;;;-7.76;77.44;100012.16;5014116;28;20079;-79
2022/01/25 06:20:15;;;;;;;29.20;15.65;;;;;;;-7.72;77.53;99999.91;5014027;28;20125;-79
2022/01/25 06:22:40;;;;;;;30.15;15.60;;;;;;;-7.66;78.00;100002.00;5030921;28;20100;-78
2022/01/25 06:25:07;;;;;;;31.10;15.30;;;;;;;-7.73;76.83;99992.25;4997412;28;20069;-79
2022/01/25 06:27:33;;;;;;;26.98;14.38;;;;;;;-7.73;78.02;100005.72;5013821;28;20405;-79
2022/01/25 06:29:59;;;;;;;31.00;15.25;;;;;;;-7.75;78.15;99994.63;5030240;28;20120;-79
2022/01/25 06:32:24;;;;;;;29.33;15.57;;;;;;;-7.70;76.84;99998.41;5046565;28;20041;-79
2022/01/25 06:34:51;;;;;;;29.02;15.32;;;;;;;-7.80;77.45;99985.88;5013475;28;20052;-79
2022/01/25 06:37:17;;;;;;;25.63;14.13;;;;;;;-7.71;77.24;99985.66;5014544;28;20061;-79
2022/01/25 06:39:42;;;;;;;;;;;;;;;-7.71;77.72;99999.13;5013722;28;20548;-79
2022/01/25 06:42:09;;;;;;;30.02;15.55;;;;;;;-7.75;77.32;99989.59;5014876;28;19921;-80
2022/01/25 06:44:36;;;;;;;30.83;14.75;;;;;;;-7.72;77.49;99979.75;4997030;28;20033;-77
2022/01/25 06:47:02;;;;;;;27.63;13.98;;;;;;;-7.64;77.56;99981.97;5013235;28;20077;-78
2022/01/25 06:49:28;;;;;;;26.80;13.65;;;;;;;-7.68;78.34;99969.13;4979788;28;20033;-78
2022/01/25 06:51:53;;;;;;;32.00;14.98;;;;;;;-7.64;77.77;99971.91;4996707;28;20180;-78
2022/01/25 06:54:19;;;;;;;25.88;13.57;;;;;;;-7.63;77.35;99984.59;5029374;28;20481;-79
2022/01/25 06:56:45;;;;;;;25.30;13.38;;;;;;;-7.64;77.18;99974.41;5013038;28;20072;-77
2022/01/25 06:59:10;;;;;;;23.02;13.23;;;;;;;-7.59;78.03;99985.69;5014148;28;20153;-78
2022/01/25 07:01:36;;;;;;;31.13;13.70;;;;;;;-7.60;77.66;99979.78;4996460;28;20052;-79
2022/01/25 07:04:02;;;;;;;;;;;;;;;-7.63;77.68;99963.56;4996921;28;20066;-78
2022/01/25 07:06:27;;;;;;;26.90;13.80;;;;;;;-7.61;77.29;99959.50;5046174;28;19917;-79
2022/01/25 07:08:53;;;;;;;25.67;13.15;;;;;;;-7.61;77.78;99956.97;5012857;28;20474;-79
2022/01/25 07:11:19;;;;;;;27.45;14.38;;;;;;;-7.60;77.18;99956.25;5014069;28;20040;-79
2022/01/25 07:13:46;;;;;;;28.33;14.07;;;;;;;-7.60;77.56;99951.19;5013758;28;20068;-79
2022/01/25 07:16:11;;;;;;;27.05;14.07;;;;;;;-7.61;78.01;99959.50;4980369;28;20042;-78
2022/01/25 07:18:37;;;;;;;28.17;13.82;;;;;;;-7.60;78.46;99946.16;5013944;28;20029;-79
2022/01/25 07:21:03;;;;;;;26.67;13.02;;;;;;;-7.53;77.89;99948.34;5012138;28;20401;-79
2022/01/25 07:23:28;;;;;;;31.25;15.50;;;;;;;-7.53;78.03;99940.78;4980218;28;20120;-78
2022/01/25 07:25:54;;;;;;;26.67;13.82;;;;;;;-7.49;77.92;99938.59;4980981;28;20513;-79
2022/01/25 07:28:20;;;;;;;26.85;13.15;;;;;;;-7.45;77.65;99930.47;5012599;28;20459;-78
2022/01/25 07:30:45;;;;;;;;;;;;;;;-7.33;78.40;99929.59;4980853;28;20465;-78
2022/01/25 07:33:11;;;;;;;25.13;13.25;;;;;;;-7.36;77.33;99907.59;5045602;28;20311;-78
2022/01/25 07:35:40;;;;;;;28.45;14.77;;;;;;;-7.28;77.64;99915.69;5012695;28;20141;-79
2022/01/25 07:38:05;;;;;;;30.75;15.10;;;;;;;-7.31;76.61;99906.25;4980487;28;20030;-79
2022/01/25 07:40:35;;;;;;;31.42;14.68;;;;;;;-7.27;76.89;99910.75;5012809;28;20041;-79
2022/01/25 07:43:01;;;;;;;34.55;15.77;;;;;;;-7.35;75.95;99916.88;4997379;28;20045;-78
2022/01/25 07:45:34;;;;;;;28.75;14.38;;;;;;;-7.35;77.00;99905.94;4995976;28;20042;-78
2022/01/25 07:48:01;;;;;;;31.80;15.27;;;;;;;-7.32;76.88;99917.09;4997058;28;20068;-80
2022/01/25 07:50:26;;;;;;;27.38;14.80;;;;;;;-7.30;76.37;99914.69;5028955;28;20061;-79
2022/01/25 07:52:54;;;;;;;29.98;15.77;;;;;;;-7.31;77.51;99903.72;5013802;28;20099;-78
2022/01/25 07:55:20;;;;;;;27.67;14.82;;;;;;;-7.28;76.75;99903.97;5012436;28;20041;-79
2022/01/25 07:57:45;;;;;;;31.88;16.58;;;;;;;-7.30;77.23;99897.03;5012520;28;20049;-80
2022/01/25 08:00:12;;;;;;;34.97;16.48;;;;;;;-7.26;76.33;99904.94;5012457;28;20045;-79
2022/01/25 08:02:41;;;;;;;35.10;17.02;;;;;;;-7.24;76.59;99910.97;4996553;28;20405;-82
2022/01/25 08:05:07;;;;;;;37.35;16.85;;;;;;;-7.28;76.70;99893.00;5013839;28;20536;-78
2022/01/25 08:07:33;;;;;;;34.05;16.65;;;;;;;-7.30;76.76;99895.41;5013578;28;20084;-78
2022/01/25 08:09:58;;;;;;;31.80;15.55;;;;;;;-7.25;76.41;99896.59;5012899;28;20041;-79
2022/01/25 08:12:25;;;;;;;31.88;16.25;;;;;;;-7.27;76.36;99893.09;4981941;28;20045;-79
2022/01/25 08:14:51;;;;;;;34.35;18.00;;;;;;;-7.41;77.22;99881.19;4998103;28;20061;-84
2022/01/25 08:17:17;;;;;;;32.67;17.15;;;;;;;-7.42;77.01;99895.44;5012313;28;20417;-79
2022/01/25 08:19:44;;;;;;;33.30;16.70;;;;;;;-7.51;76.98;99873.75;5011748;28;20121;-78
2022/01/25 08:22:10;;;;;;;32.42;16.30;;;;;;;-7.45;77.04;99891.81;5012783;28;20042;-83
2022/01/25 08:24:36;;;;;;;32.00;15.90;;;;;;;-7.34;77.17;99885.88;4979437;28;20030;-79
2022/01/25 08:27:02;;;;;;;31.17;16.20;;;;;;;-7.31;77.56;99877.66;5029209;28;20516;-81
2022/01/25 08:29:28;;;;;;;35.00;17.35;;;;;;;-7.44;77.39;99866.72;5028221;28;20053;-79
2022/01/25 08:31:53;;;;;;;33.30;16.77;;;;;;;-7.35;76.99;99870.66;4979478;28;20042;-81
2022/01/25 08:34:19;;;;;;;33.30;16.83;;;;;;;-7.28;76.90;99870.31;5012026;28;20361;-79
2022/01/25 08:36:45;;;;;;;;;;;;;;;-7.23;77.54;99872.38;5012587;28;20052;-79
2022/01/25 08:39:10;;;;;;;37.60;17.98;;;;;;;-7.41;77.11;99871.09;5028831;28;19913;-78
2022/01/25 08:41:38;;;;;;;38.58;18.52;;;;;;;-7.51;77.24;99843.53;5044729;28;20089;-79
2022/01/25 08:44:04;;;;;;;35.45;16.00;;;;;;;-7.32;77.04;99850.72;4980191;28;20104;-79
2022/01/25 08:46:29;;;;;;;36.58;18.92;;;;;;;-7.30;77.09;99850.03;5012566;28;20095;-79
2022/01/25 08:48:55;;;;;;;33.95;17.40;;;;;;;-7.23;76.52;99837.09;4996225;28;20038;-82
2022/01/25 08:51:21;;;;;;;34.15;18.13;;;;;;;-7.21;76.61;99829.63;4980812;28;20037;-79
2022/01/25 08:53:48;;;;;;;36.17;18.33;;;;;;;-7.13;76.83;99827.63;5012448;28;20509;-80
2022/01/25 08:56:13;;;;;;;33.75;17.95;;;;;;;-7.11;77.23;99826.09;4996921;28;20521;-79
2022/01/25 08:58:40;;;;;;;34.85;18.35;;;;;;;-7.23;76.10;99816.94;4996300;28;20038;-79
2022/01/25 09:01:06;;;;;;;33.40;17.17;;;;;;;-7.23;76.02;99816.94;4995762;28;20038;-78
2022/01/25 09:03:32;;;;;;;33.15;17.23;;;;;;;-7.22;77.11;99818.66;5012138;28;20437;-82
2022/01/25 09:05:57;;;;;;;38.15;19.40;;;;;;;-7.20;76.80;99827.19;4996057;28;20129;-79
2022/01/25 09:08:26;;;;;;;33.28;16.92;;;;;;;-7.20;77.30;99822.16;4996667;28;20042;-82
2022/01/25 09:10:57;;;;;;;35.05;17.35;;;;;;;-7.25;76.94;99792.38;4981852;28;20129;-80
2022/01/25 09:13:23;;;;;;;34.50;18.10;;;;;;;-7.21;76.58;99800.25;5032218;28;20149;-79
2022/01/25 09:15:49;;;;;;;34.50;17.42;;;;;;;-7.17;76.39;99801.34;4982981;28;20029;-84
2022/01/25 09:18:16;;;;;;;;;;;;;;;-7.20;76.80;99799.47;4985136;28;20049;-81
2022/01/25 09:20:42;;;;;;;33.78;17.63;;;;;;;-7.23;76.21;99781.63;5015832;28;20296;-78
2022/01/25 09:23:08;;;;;;;30.85;16.63;;;;;;;-7.02;76.26;99788.88;4999733;28;20091;-82
2022/01/25 09:25:33;;;;;;;29.83;15.50;;;;;;;-7.01;76.49;99776.41;4983314;28;20196;-79
2022/01/25 09:27:59;;;;;;;31.10;16.27;;;;;;;-7.01;76.31;99772.97;5016878;28;20038;-79
2022/01/25 09:30:25;;;;;;;30.85;16.08;;;;;;;-7.05;75.25;99771.06;5015894;28;20038;-79
2022/01/25 09:32:51;;;;;;;33.08;16.60;;;;;;;-7.02;75.59;99767.06;4984592;28;20088;-77
2022/01/25 09:35:17;;;;;;;33.65;16.88;;;;;;;-6.98;75.13;99770.66;4982889;28;20034;-80
2022/01/25 09:37:42;;;;;;;;;;;;;;;-6.99;74.83;99762.22;5015402;28;20038;-80
2022/01/25 09:40:09;;;;;;;33.30;16.75;;;;;;;-6.95;75.18;99763.31;5031498;28;19923;-79
2022/01/25 09:42:36;;;;;;;34.03;17.17;;;;;;;-7.04;75.43;99742.53;4999212;28;20124;-80
2022/01/25 09:45:02;;;;;;;32.22;17.23;;;;;;;-6.97;75.06;99757.28;5015416;28;20042;-80
2022/01/25 09:47:27;;;;;;;;;;;;;;;-6.94;74.68;99755.84;5016067;28;20437;-78
2022/01/25 09:49:53;;;;;;;34.72;17.45;;;;;;;-6.98;75.34;99750.50;5031777;28;19959;-78
2022/01/25 09:52:19;;;;;;;30.25;15.93;;;;;;;-6.92;75.18;99754.31;5015706;28;20037;-78
2022/01/25 09:54:55;;;;;;;30.15;17.23;;;;;;;-6.93;75.56;99750.03;4998613;28;20044;-80
2022/01/25 09:57:21;;;;;;;29.97;16.73;;;;;;;-6.90;75.58;99749.38;4998940;28;20045;-80
2022/01/25 09:59:46;;;;;;;;;;;;;;;-6.91;76.00;99747.63;5015524;28;20038;-79
2022/01/25 10:02:12;;;;;;;30.90;15.13;;;;;;;-6.96;75.39;99736.38;5030757;28;19917;-79
2022/01/25 10:04:40;;;;;;;29.77;15.90;;;;;;;-6.89;75.33;99727.53;4981975;28;20100;-80
2022/01/25 10:07:09;;;;;;;25.42;13.00;;;;;;;-6.85;75.36;99717.75;4982980;28;20092;-79
2022/01/25 10:09:41;;;;;;;22.85;13.00;;;;;;;-7.04;75.28;99712.28;4998418;28;20069;-79
2022/01/25 10:12:20;;;;;;;23.55;11.95;;;;;;;-7.01;74.92;99702.38;4982700;28;20061;-78
2022/01/25 10:15:01;;;;;;;21.05;12.27;;;;;;;-6.96;74.23;99706.09;5014829;28;20116;-79
2022/01/25 10:17:31;;;;;;;20.73;12.00;;;;;;;-7.01;74.58;99690.69;5014576;28;20153;-81
2022/01/25 10:19:57;;;;;;;18.40;10.63;;;;;;;-6.85;74.65;99692.53;5014750;28;20509;-82
2022/01/25 10:22:23;;;;;;;18.23;10.93;;;;;;;-6.85;74.56;99674.88;4997940;28;20026;-80
2022/01/25 10:24:49;;;;;;;20.20;11.77;;;;;;;-6.80;74.67;99681.09;5015647;28;20077;-79
2022/01/25 10:27:14;;;;;;;21.13;12.30;;;;;;;-6.98;73.41;99687.47;5014401;28;20038;-80
2022/01/25 10:29:41;;;;;;;20.90;11.57;;;;;;;-6.99;73.87;99676.50;5030761;28;20045;-80
2022/01/25 10:32:09;;;;;;;23.70;13.57;;;;;;;-6.91;73.75;99674.50;5013892;28;20029;-78
2022/01/25 10:34:43;;;;;;;20.88;12.45;;;;;;;-6.83;73.91;99674.97;4998382;28;20073;-79
2022/01/25 10:37:19;;;;;;;23.42;12.98;;;;;;;-6.76;73.87;99665.38;4997893;28;20124;-79
2022/01/25 10:39:46;;;;;;;20.65;11.82;;;;;;;-6.87;73.51;99645.28;5016462;28;20050;-82
2022/01/25 10:42:21;;;;;;;20.00;11.52;;;;;;;-6.85;74.25;99647.13;4999257;28;20045;-80
2022/01/25 10:45:02;;;;;;;20.33;11.93;;;;;;;-6.86;73.68;99650.44;4981706;28;20038;-82
2022/01/25 10:47:46;;;;;;;21.10;11.38;;;;;;;-6.74;73.95;99648.66;4981457;28;20058;-78
2022/01/25 10:50:31;;;;;;;20.80;12.27;;;;;;;-6.85;72.66;99643.75;5030187;28;20092;-82
2022/01/25 10:53:08;;;;;;;19.98;11.10;;;;;;;-6.90;73.33;99630.84;4997610;28;20038;-78
2022/01/25 10:55:38;;;;;;;20.95;11.85;;;;;;;-6.81;74.31;99636.47;5029733;28;20046;-79
2022/01/25 10:58:04;;;;;;;23.05;12.02;;;;;;;-6.68;73.38;99616.28;5013008;28;20030;-79
2022/01/25 11:00:32;;;;;;;21.60;11.52;;;;;;;-6.67;73.44;99614.63;5013303;28;20046;-79
2022/01/25 11:02:58;;;;;;;22.65;11.43;;;;;;;-6.72;73.40;99619.38;5013195;28;20147;-77
2022/01/25 11:05:25;;;;;;;19.27;10.70;;;;;;;-6.96;72.78;99582.53;5013479;28;20070;-78
2022/01/25 11:07:51;;;;;;;19.60;10.55;;;;;;;-6.85;73.09;99603.38;5029171;28;20030;-79
2022/01/25 11:10:19;;;;;;;17.88;10.13;;;;;;;-6.79;72.46;99594.53;4980604;28;20046;-79
2022/01/25 11:13:49;;;;;;;20.27;11.15;;;;;;;-6.73;72.32;99600.00;4981358;28;20033;-79
2022/01/25 11:15:40;;;;;;;18.50;10.80;;;;;;;-6.76;71.91;99591.34;5033516;28;20100;-82
2022/01/25 11:18:06;;;;;;;20.63;11.55;;;;;;;-6.67;72.44;99584.38;4997453;28;20120;-82
2022/01/25 11:20:33;;;;;;;18.23;10.35;;;;;;;-6.61;72.71;99583.88;5013472;28;20049;-80
2022/01/25 11:22:59;;;;;;;21.95;11.25;;;;;;;-6.57;72.61;99571.53;4997011;28;20041;-78
2022/01/25 11:25:24;;;;;;;18.88;10.23;;;;;;;-6.49;72.55;99567.84;5013826;28;20038;-80
2022/01/25 11:27:50;;;;;;;21.02;10.90;;;;;;;-6.52;72.09;99549.09;5013542;28;20049;-78
2022/01/25 11:30:18;;;;;;;21.67;11.40;;;;;;;-6.55;71.97;99551.44;4964906;28;20049;-79
2022/01/25 11:32:45;;;;;;;17.35;9.80;;;;;;;-6.51;72.23;99568.50;4996915;28;20455;-82
2022/01/25 11:35:12;;;;;;;19.83;11.05;;;;;;;-6.55;72.14;99571.63;5013579;28;20037;-79
2022/01/25 11:37:44;;;;;;;18.15;11.00;;;;;;;-6.61;72.08;99561.16;4980903;28;20386;-80
2022/01/25 11:40:20;;;;;;;20.42;10.40;;;;;;;-6.58;71.88;99556.31;5012941;28;20042;-80
2022/01/25 11:42:47;;;;;;;16.75;9.00;;;;;;;-6.66;71.09;99548.25;5012538;28;20038;-81
2022/01/25 11:45:14;;;;;;;17.50;9.65;;;;;;;-6.75;71.55;99538.47;5013243;28;20045;-82
2022/01/25 11:47:40;;;;;;;16.35;10.25;;;;;;;-6.77;71.06;99532.47;4997090;28;20409;-81
2022/01/25 11:50:08;;;;;;;15.85;9.23;;;;;;;-6.56;71.43;99552.22;5029891;28;20061;-80
2022/01/25 11:52:34;;;;;;;18.10;9.77;;;;;;;-6.59;70.82;99544.47;4997015;28;20038;-78
2022/01/25 11:55:26;;;;;;;;;;;;;;;-6.63;70.47;99540.03;4997995;28;20108;-82
2022/01/25 11:57:59;;;;;;;16.75;8.60;;;;;;;-6.65;71.24;99520.59;5043807;28;20351;-81
2022/01/25 12:00:40;;;;;;;15.88;9.05;;;;;;;-6.74;71.43;99525.06;5014415;28;20430;-78
2022/01/25 12:03:35;;;;;;;18.08;10.00;;;;;;;-6.88;71.69;99528.41;5044747;28;20061;-79
2022/01/25 12:06:08;;;;;;;17.42;9.32;;;;;;;-6.83;71.92;99516.94;5013741;28;20044;-82
2022/01/25 12:11:35;;;;;;;15.35;9.48;;;;;;;-6.74;71.72;99512.47;4997372;28;20133;-79
2022/01/25 12:14:32;;;;;;;17.95;9.20;;;;;;;-6.67;71.59;99509.56;5012583;28;20033;-78
2022/01/25 12:17:04;;;;;;;17.20;9.57;;;;;;;-6.72;71.65;99505.00;5013087;28;20050;-80
2022/01/25 12:19:50;;;;;;;17.23;9.63;;;;;;;-6.92;71.22;99502.13;5013028;28;20053;-82
2022/01/25 12:22:27;;;;;;;14.27;8.50;;;;;;;-6.78;72.26;99507.13;4997889;28;20038;-78
2022/01/25 12:25:09;;;;;;;15.43;9.15;;;;;;;-6.84;71.46;99499.19;5013290;28;20089;-78
2022/01/25 12:27:50;;;;;;;16.45;8.68;;;;;;;-6.87;71.12;99496.47;4997904;28;20040;-80
2022/01/25 12:30:25;;;;;;;16.33;8.73;;;;;;;-6.82;71.94;99505.22;4997332;28;20044;-79
2022/01/25 12:33:04;;;;;;;16.05;8.95;;;;;;;-6.86;71.02;99519.28;5012837;28;20543;-79
2022/01/25 12:35:47;;;;;;;16.58;9.27;;;;;;;-6.80;71.62;99512.09;5012478;28;20904;-79
2022/01/25 12:38:20;;;;;;;19.13;9.68;;;;;;;-6.85;72.29;99515.13;4997398;28;20038;-78
2022/01/25 12:41:17;;;;;;;16.33;9.45;;;;;;;-6.86;71.21;99520.94;5029584;28;20045;-80
2022/01/25 12:43:50;;;;;;;16.75;9.00;;;;;;;-6.91;71.51;99498.84;4995950;28;20115;-78
2022/01/25 12:46:18;;;;;;;17.05;8.70;;;;;;;-6.90;71.46;99524.91;4996340;28;20080;-78
2022/01/25 12:48:51;;;;;;;15.70;8.90;;;;;;;-6.98;71.74;99518.53;4999803;28;20034;-78
2022/01/25 12:51:27;;;;;;;16.27;9.07;;;;;;;-6.90;71.78;99509.78;4999659;28;20046;-78
2022/01/25 12:53:55;;;;;;;15.32;9.38;;;;;;;-7.02;70.91;99516.59;4983476;28;20400;-81
2022/01/25 12:56:28;;;;;;;16.67;9.35;;;;;;;-7.02;71.73;99514.06;4999999;28;20070;-79
2022/01/25 12:58:59;;;;;;;15.50;8.77;;;;;;;-6.93;72.25;99524.72;5016283;28;20455;-79
2022/01/25 13:01:26;;;;;;;15.27;7.72;;;;;;;-7.16;72.20;99509.03;4999169;28;20038;-83
2022/01/25 13:04:01;;;;;;;14.73;8.30;;;;;;;-6.88;72.71;99532.56;4999150;28;20061;-78
2022/01/25 13:06:32;;;;;;;12.73;7.85;;;;;;;-7.06;71.34;99527.25;5016508;28;20053;-82
2022/01/25 13:09:08;;;;;;;14.85;8.30;;;;;;;-7.25;71.68;99535.28;5015325;28;20129;-77